createdAt,value
2022-07-28T00:00:01.393Z,57.52
2022-07-28T00:02:28.786Z,57.59
2022-07-28T00:04:56.234Z,57.87
2022-07-28T00:07:22.838Z,57.52
2022-07-28T00:09:49.718Z,57.72
2022-07-28T00:12:16.731Z,57.31
2022-07-28T00:14:43.474Z,57.30
2022-07-28T00:17:10.308Z,57.85
2022-07-28T00:19:37.017Z,57.76
2022-07-28T00:22:04.141Z,57.83
2022-07-28T00:24:31.724Z,57.41
2022-07-28T00:26:58.397Z,57.83
2022-07-28T00:29:24.931Z,57.63
2022-07-28T00:32:11.450Z,58.30
2022-07-28T00:34:38.491Z,57.76
2022-07-28T00:37:07.295Z,57.75
2022-07-28T00:39:40.015Z,57.81
2022-07-28T00:42:06.771Z,58.04
2022-07-28T00:44:33.270Z,58.24
2022-07-28T00:46:59.871Z,58.32
2022-07-28T00:49:26.746Z,58.05
2022-07-28T00:51:53.814Z,58.65
2022-07-28T00:54:20.444Z,58.90
2022-07-28T00:56:46.955Z,59.09
2022-07-28T00:59:13.528Z,59.30
2022-07-28T01:01:40.256Z,59.33
2022-07-28T01:04:07.208Z,58.88
2022-07-28T01:07:16.494Z,59.72
2022-07-28T01:09:58.227Z,60.35
2022-07-28T01:12:55.562Z,60.30
2022-07-28T01:15:40.749Z,59.88
2022-07-28T01:18:14.871Z,60.13
2022-07-28T01:20:52.593Z,60.15
2022-07-28T01:23:58.648Z,59.86
2022-07-28T01:26:31.339Z,59.99
2022-07-28T01:29:18.811Z,60.09
2022-07-28T01:31:57.085Z,59.80
2022-07-28T01:34:45.477Z,59.62
2022-07-28T01:37:19.315Z,59.50
2022-07-28T01:39:52.434Z,59.61
2022-07-28T01:42:24.083Z,60.16
2022-07-28T01:44:57.324Z,60.21
2022-07-28T01:47:27.891Z,60.77
2022-07-28T01:49:59.692Z,60.77
2022-07-28T01:52:28.997Z,60.83
2022-07-28T01:54:59.152Z,60.62
2022-07-28T01:57:29.793Z,61.26
2022-07-28T02:00:00.080Z,60.99
2022-07-28T02:02:31.008Z,61.53
2022-07-28T02:05:00.790Z,61.41
2022-07-28T02:07:29.813Z,62.26
2022-07-28T02:09:58.596Z,62.02
2022-07-28T02:12:27.956Z,62.10
2022-07-28T02:14:57.269Z,62.67
2022-07-28T02:17:33.450Z,62.99
2022-07-28T02:20:03.195Z,63.00
2022-07-28T02:22:32.474Z,62.60
2022-07-28T02:24:59.424Z,63.04
2022-07-28T02:27:40.463Z,63.32
2022-07-28T02:30:22.203Z,63.38
2022-07-28T02:32:54.980Z,63.38
2022-07-28T02:35:49.129Z,63.33
2022-07-28T02:38:30.207Z,63.42
2022-07-28T02:41:03.790Z,63.26
2022-07-28T02:43:49.477Z,63.45
2022-07-28T02:46:24.105Z,63.71
2022-07-28T02:49:06.540Z,63.08
2022-07-28T02:51:36.494Z,62.83
2022-07-28T02:54:04.615Z,63.91
2022-07-28T02:56:32.386Z,63.90
2022-07-28T02:59:00.831Z,63.77
2022-07-28T03:01:28.051Z,64.27
2022-07-28T03:03:56.609Z,64.65
2022-07-28T03:06:28.510Z,64.54
2022-07-28T03:08:56.699Z,64.70
2022-07-28T03:11:23.350Z,64.95
2022-07-28T03:13:49.947Z,65.06
2022-07-28T03:16:16.519Z,64.67
2022-07-28T03:18:43.120Z,64.59
2022-07-28T03:21:09.620Z,64.46
2022-07-28T03:23:48.179Z,64.55
2022-07-28T03:26:30.503Z,64.97
2022-07-28T03:29:00.202Z,65.01
2022-07-28T03:31:29.063Z,64.40
2022-07-28T03:33:56.771Z,64.54
2022-07-28T03:36:30.883Z,64.55
2022-07-28T03:39:11.907Z,64.48
2022-07-28T03:41:42.238Z,64.30
2022-07-28T03:44:12.335Z,64.16
2022-07-28T03:46:46.379Z,64.70
2022-07-28T03:49:13.174Z,64.38
2022-07-28T03:51:39.824Z,64.45
2022-07-28T03:54:06.450Z,64.62
2022-07-28T03:56:32.959Z,64.73
2022-07-28T03:58:59.604Z,64.54
2022-07-28T04:01:26.215Z,64.01
2022-07-28T04:03:52.816Z,64.08
2022-07-28T04:06:19.553Z,64.08
2022-07-28T04:08:46.460Z,63.81
2022-07-28T04:11:13.073Z,63.93
2022-07-28T04:13:39.624Z,64.11
2022-07-28T04:16:07.511Z,64.14
2022-07-28T04:18:34.591Z,64.30
2022-07-28T04:21:01.203Z,64.16
2022-07-28T04:23:28.000Z,64.37
2022-07-28T04:25:54.505Z,64.18
2022-07-28T04:28:21.102Z,64.26
2022-07-28T04:30:47.674Z,64.39
2022-07-28T04:33:14.285Z,64.41
2022-07-28T04:35:40.840Z,64.46
2022-07-28T04:38:07.693Z,64.47
2022-07-28T04:40:34.489Z,64.36
2022-07-28T04:43:01.403Z,64.18
2022-07-28T04:45:28.770Z,64.46
2022-07-28T04:47:55.326Z,64.29
2022-07-28T04:50:21.889Z,64.51
2022-07-28T04:52:49.784Z,64.92
2022-07-28T04:55:17.837Z,65.04
2022-07-28T04:57:44.819Z,65.43
2022-07-28T05:00:13.757Z,65.55
2022-07-28T05:02:42.332Z,65.01
2022-07-28T05:05:09.874Z,65.33
2022-07-28T05:07:38.319Z,65.36
2022-07-28T05:10:10.541Z,65.08
2022-07-28T05:12:38.098Z,65.08
2022-07-28T05:15:07.241Z,65.36
2022-07-28T05:17:34.538Z,65.57
2022-07-28T05:20:01.048Z,65.37
2022-07-28T05:22:41.051Z,65.24
2022-07-28T05:25:14.882Z,64.93
2022-07-28T05:27:41.411Z,65.45
2022-07-28T05:30:09.326Z,65.23
2022-07-28T05:32:35.864Z,65.66
2022-07-28T05:35:02.358Z,65.37
2022-07-28T05:37:29.128Z,65.54
2022-07-28T05:39:55.670Z,65.66
2022-07-28T05:42:22.259Z,66.12
2022-07-28T05:44:48.771Z,65.64
2022-07-28T05:47:15.287Z,65.63
2022-07-28T05:49:41.835Z,65.87
2022-07-28T05:52:08.347Z,65.28
2022-07-28T05:54:34.867Z,65.88
2022-07-28T05:57:01.437Z,65.48
2022-07-28T05:59:27.931Z,65.70
2022-07-28T06:01:54.517Z,65.72
2022-07-28T06:04:29.032Z,65.30
2022-07-28T06:06:56.909Z,65.57
2022-07-28T06:09:23.543Z,64.85
2022-07-28T06:11:50.682Z,64.89
2022-07-28T06:14:18.805Z,64.70
2022-07-28T06:16:50.775Z,63.96
2022-07-28T06:19:18.532Z,63.25
2022-07-28T06:21:45.155Z,62.68
2022-07-28T06:24:12.143Z,61.54
2022-07-28T06:26:44.336Z,61.58
2022-07-28T06:29:12.293Z,61.33
2022-07-28T06:31:39.134Z,60.34
2022-07-28T06:34:06.448Z,59.83
2022-07-28T06:36:33.018Z,59.26
2022-07-28T06:38:59.618Z,58.91
2022-07-28T06:41:26.158Z,59.00
2022-07-28T06:43:52.693Z,58.04
2022-07-28T06:46:19.869Z,57.47
2022-07-28T06:48:46.766Z,57.07
2022-07-28T06:51:14.964Z,56.95
2022-07-28T06:53:41.575Z,56.73
2022-07-28T06:56:10.886Z,56.77
2022-07-28T06:58:40.541Z,56.87
2022-07-28T07:01:07.809Z,56.30
2022-07-28T07:03:34.781Z,56.47
2022-07-28T07:06:01.392Z,56.37
2022-07-28T07:08:28.219Z,55.99
2022-07-28T07:10:55.138Z,55.72
2022-07-28T07:13:21.652Z,55.62
2022-07-28T07:15:48.210Z,54.80
2022-07-28T07:18:14.819Z,54.84
2022-07-28T07:20:41.660Z,54.78
2022-07-28T07:23:08.217Z,54.00
2022-07-28T07:25:34.848Z,53.63
2022-07-28T07:28:01.392Z,53.71
2022-07-28T07:30:27.940Z,53.69
2022-07-28T07:32:54.438Z,53.20
2022-07-28T07:35:21.028Z,52.69
2022-07-28T07:37:47.564Z,52.33
2022-07-28T07:40:14.211Z,51.82
2022-07-28T07:42:40.733Z,51.65
2022-07-28T07:45:07.986Z,51.52
2022-07-28T07:47:34.564Z,51.45
2022-07-28T07:50:04.211Z,50.99
2022-07-28T07:52:31.556Z,50.92
2022-07-28T07:54:58.239Z,51.07
2022-07-28T07:57:24.857Z,50.89
2022-07-28T07:59:51.462Z,50.17
2022-07-28T08:02:17.969Z,49.27
2022-07-28T08:04:44.556Z,48.80
2022-07-28T08:07:11.467Z,48.88
2022-07-28T08:09:38.610Z,48.70
2022-07-28T08:12:05.727Z,48.01
2022-07-28T08:14:32.359Z,48.22
2022-07-28T08:16:59.508Z,48.08
2022-07-28T08:19:26.814Z,48.26
2022-07-28T08:21:53.644Z,47.55
2022-07-28T08:24:33.013Z,47.13
2022-07-28T08:27:02.410Z,47.44
2022-07-28T08:29:29.211Z,47.52
2022-07-28T08:31:56.315Z,47.20
2022-07-28T08:34:31.029Z,46.85
2022-07-28T08:37:03.765Z,46.72
2022-07-28T08:39:35.447Z,46.41
2022-07-28T08:42:34.201Z,45.93
2022-07-28T08:45:07.751Z,46.63
2022-07-28T08:47:46.043Z,46.23
2022-07-28T08:50:24.433Z,46.49
2022-07-28T08:52:53.769Z,46.36
2022-07-28T08:55:31.514Z,45.69
2022-07-28T08:58:00.423Z,45.82
2022-07-28T09:00:27.780Z,45.61
2022-07-28T09:02:55.999Z,45.75
2022-07-28T09:05:24.258Z,45.75
2022-07-28T09:07:55.202Z,45.46
2022-07-28T09:10:23.381Z,45.62
2022-07-28T09:12:50.154Z,45.43
2022-07-28T09:15:16.723Z,45.26
2022-07-28T09:17:43.494Z,45.05
2022-07-28T09:20:12.197Z,45.28
2022-07-28T09:23:33.565Z,42.84
2022-07-28T09:26:12.448Z,44.80
2022-07-28T09:28:58.245Z,43.62
2022-07-28T09:31:28.404Z,44.61
2022-07-28T09:34:00.736Z,44.06
2022-07-28T09:36:30.196Z,44.41
2022-07-28T09:38:57.204Z,44.29
2022-07-28T09:41:24.616Z,43.34
2022-07-28T09:43:55.143Z,43.82
2022-07-28T09:46:25.604Z,43.20
2022-07-28T09:49:02.212Z,43.44
2022-07-28T09:51:31.451Z,43.53
2022-07-28T09:54:08.533Z,41.11
2022-07-28T09:56:35.618Z,42.68
2022-07-28T09:59:03.596Z,42.66
2022-07-28T10:01:35.218Z,42.18
2022-07-28T10:04:04.299Z,41.76
2022-07-28T10:06:33.674Z,41.72
2022-07-28T10:09:04.325Z,41.50
2022-07-28T10:11:31.652Z,41.20
2022-07-28T10:14:07.116Z,40.77
2022-07-28T10:16:36.603Z,41.04
2022-07-28T10:19:05.697Z,40.98
2022-07-28T10:21:42.102Z,40.46
2022-07-28T10:24:14.235Z,40.27
2022-07-28T10:26:45.138Z,40.12
2022-07-28T10:29:18.231Z,40.08
2022-07-28T10:32:14.079Z,40.27
2022-07-28T10:34:52.236Z,39.61
2022-07-28T10:37:23.568Z,39.42
2022-07-28T10:40:12.488Z,38.89
2022-07-28T10:42:40.821Z,39.42
2022-07-28T10:45:11.435Z,39.15
2022-07-28T10:47:38.002Z,38.86
2022-07-28T10:50:06.164Z,38.61
2022-07-28T10:52:47.358Z,39.07
2022-07-28T10:55:57.668Z,37.70
2022-07-28T10:59:21.439Z,38.66
2022-07-28T11:01:52.283Z,39.01
2022-07-28T11:04:52.108Z,38.34
2022-07-28T11:07:20.715Z,37.93
2022-07-28T11:09:48.425Z,37.80
2022-07-28T11:12:16.621Z,37.57
2022-07-28T11:14:44.729Z,37.53
2022-07-28T11:17:13.010Z,38.17
2022-07-28T11:22:33.970Z,37.93
2022-07-28T11:25:19.021Z,37.57
2022-07-28T11:27:51.206Z,37.06
2022-07-28T11:30:35.664Z,38.01
2022-07-28T11:33:09.328Z,37.91
2022-07-28T11:35:38.883Z,37.04
2022-07-28T11:38:05.833Z,37.15
2022-07-28T11:40:46.132Z,36.58
2022-07-28T11:43:22.782Z,36.53
2022-07-28T11:46:01.848Z,35.96
2022-07-28T11:48:29.927Z,35.72
2022-07-28T11:51:02.541Z,36.58
2022-07-28T11:53:51.754Z,36.69
2022-07-28T11:56:32.674Z,35.98
2022-07-28T11:59:03.658Z,36.99
2022-07-28T12:01:32.460Z,37.09
2022-07-28T12:04:12.226Z,36.08
2022-07-28T12:06:42.844Z,36.44
2022-07-28T12:09:13.285Z,36.04
2022-07-28T12:11:42.575Z,35.85
2022-07-28T12:14:16.431Z,35.61
2022-07-28T12:16:45.961Z,36.16
2022-07-28T12:19:17.043Z,36.06
2022-07-28T12:21:55.572Z,35.37
2022-07-28T12:24:45.777Z,34.54
2022-07-28T12:27:15.414Z,35.71
2022-07-28T12:29:43.711Z,35.95
2022-07-28T12:32:10.689Z,36.12
2022-07-28T12:34:40.347Z,35.42
2022-07-28T12:37:12.101Z,35.55
2022-07-28T12:39:41.866Z,35.26
2022-07-28T12:42:11.757Z,34.42
2022-07-28T12:44:41.961Z,34.54
2022-07-28T12:47:13.035Z,35.12
2022-07-28T12:49:42.778Z,35.13
2022-07-28T12:52:18.056Z,34.60
2022-07-28T12:54:53.003Z,35.03
2022-07-28T12:57:51.015Z,34.73
2022-07-28T13:00:34.638Z,34.87
2022-07-28T13:03:27.262Z,34.17
2022-07-28T13:06:02.317Z,33.94
2022-07-28T13:08:45.326Z,34.12
2022-07-28T13:11:41.867Z,33.80
2022-07-28T13:14:01.126Z,33.48
2022-07-28T13:16:29.851Z,33.92
2022-07-28T13:19:02.549Z,34.49
2022-07-28T13:21:57.102Z,34.33
2022-07-28T13:24:26.890Z,34.30
2022-07-28T13:26:53.558Z,34.27
2022-07-28T13:29:20.545Z,34.04
2022-07-28T13:31:47.226Z,33.60
2022-07-28T13:34:14.606Z,33.57
2022-07-28T13:36:41.751Z,33.26
2022-07-28T13:39:13.786Z,33.30
2022-07-28T13:41:57.784Z,33.16
2022-07-28T13:44:30.219Z,33.04
2022-07-28T13:47:00.223Z,32.78
2022-07-28T13:49:33.850Z,32.96
2022-07-28T13:52:01.597Z,33.04
2022-07-28T13:54:28.565Z,33.30
2022-07-28T13:57:11.796Z,32.71
2022-07-28T13:59:39.351Z,33.21
2022-07-28T14:02:06.269Z,32.81
2022-07-28T14:04:48.912Z,32.39
2022-07-28T14:07:21.177Z,32.58
2022-07-28T14:09:50.407Z,32.40
2022-07-28T14:12:18.055Z,32.30
2022-07-28T14:14:48.506Z,32.63
2022-07-28T14:20:10.509Z,33.03
2022-07-28T14:22:37.171Z,32.84
2022-07-28T14:25:04.221Z,32.07
2022-07-28T14:27:30.935Z,32.02
2022-07-28T14:29:57.543Z,31.94
2022-07-28T14:32:24.251Z,32.02
2022-07-28T14:34:51.176Z,32.19
2022-07-28T14:37:20.039Z,32.22
2022-07-28T14:39:46.568Z,31.90
2022-07-28T14:42:13.292Z,31.98
2022-07-28T14:44:40.324Z,31.76
2022-07-28T14:47:07.377Z,32.11
2022-07-28T14:49:35.548Z,32.24
2022-07-28T14:52:03.600Z,32.09
2022-07-28T14:54:30.348Z,32.34
2022-07-28T14:56:57.039Z,31.82
2022-07-28T14:59:23.594Z,31.81
2022-07-28T15:01:50.749Z,31.64
2022-07-28T15:04:18.479Z,32.06
2022-07-28T15:06:46.031Z,32.37
2022-07-28T15:09:14.197Z,32.56
2022-07-28T15:11:41.859Z,32.46
2022-07-28T15:14:08.430Z,32.26
2022-07-28T15:16:35.080Z,32.25
2022-07-28T15:19:02.234Z,32.48
2022-07-28T15:21:34.326Z,32.41
2022-07-28T15:24:03.988Z,32.79
2022-07-28T15:26:30.523Z,32.98
2022-07-28T15:28:57.148Z,32.93
2022-07-28T15:31:26.973Z,32.53
2022-07-28T15:33:58.353Z,32.03
2022-07-28T15:36:25.563Z,32.12
2022-07-28T15:38:53.864Z,32.23
2022-07-28T15:41:20.689Z,32.22
2022-07-28T15:43:48.085Z,32.43
2022-07-28T15:46:14.818Z,32.96
2022-07-28T15:48:44.713Z,33.52
2022-07-28T15:51:11.765Z,33.77
2022-07-28T15:53:39.476Z,34.18
2022-07-28T15:56:06.219Z,34.26
2022-07-28T15:58:32.989Z,34.20
2022-07-28T16:01:01.791Z,34.17
2022-07-28T16:03:29.818Z,34.43
2022-07-28T16:05:58.499Z,34.54
2022-07-28T16:08:25.072Z,34.15
2022-07-28T16:10:54.320Z,33.98
2022-07-28T16:13:32.177Z,33.56
2022-07-28T16:16:14.861Z,33.35
2022-07-28T16:18:44.336Z,33.89
2022-07-28T16:21:11.184Z,33.54
2022-07-28T16:23:37.961Z,33.48
2022-07-28T16:26:07.674Z,33.53
2022-07-28T16:28:35.150Z,33.41
2022-07-28T16:31:01.794Z,33.69
2022-07-28T16:33:28.344Z,33.57
2022-07-28T16:36:01.247Z,33.72
2022-07-28T16:38:27.935Z,33.78
2022-07-28T16:40:54.457Z,33.28
2022-07-28T16:43:21.272Z,33.85
2022-07-28T16:45:47.821Z,33.80
2022-07-28T16:48:14.347Z,34.32
2022-07-28T16:50:45.707Z,33.91
2022-07-28T16:53:13.744Z,33.28
2022-07-28T16:55:41.991Z,33.87
2022-07-28T16:58:08.546Z,33.91
2022-07-28T17:00:35.260Z,33.64
2022-07-28T17:03:01.783Z,33.73
2022-07-28T17:05:28.331Z,33.61
2022-07-28T17:07:54.844Z,33.56
2022-07-28T17:10:27.284Z,33.72
2022-07-28T17:12:54.601Z,33.75
2022-07-28T17:15:22.397Z,33.87
2022-07-28T17:17:50.696Z,33.88
2022-07-28T17:20:17.436Z,34.10
2022-07-28T17:22:44.679Z,34.21
2022-07-28T17:25:42.902Z,34.51
2022-07-28T17:27:58.500Z,34.82
2022-07-28T17:30:25.452Z,34.87
2022-07-28T17:32:52.904Z,35.20
2022-07-28T17:35:31.705Z,35.83
2022-07-28T17:38:04.373Z,36.13
2022-07-28T17:40:32.476Z,36.74
2022-07-28T17:42:59.035Z,37.13
2022-07-28T17:45:25.759Z,37.35
2022-07-28T17:47:52.419Z,38.09
2022-07-28T17:50:19.663Z,38.11
2022-07-28T17:52:46.518Z,38.55
2022-07-28T17:55:55.762Z,38.75
2022-07-28T17:58:32.204Z,39.04
2022-07-28T18:01:10.874Z,39.21
2022-07-28T18:03:56.533Z,39.37
2022-07-28T18:06:33.317Z,39.59
2022-07-28T18:09:08.361Z,39.65
2022-07-28T18:11:57.245Z,39.77
2022-07-28T18:14:27.267Z,39.93
2022-07-28T18:16:54.296Z,39.97
2022-07-28T18:19:21.070Z,39.84
2022-07-28T18:21:47.614Z,40.06
2022-07-28T18:24:14.555Z,40.27
2022-07-28T18:26:41.276Z,40.29
2022-07-28T18:29:07.857Z,40.53
2022-07-28T18:31:34.486Z,40.49
2022-07-28T18:34:01.515Z,40.56
2022-07-28T18:36:28.028Z,41.00
2022-07-28T18:38:54.651Z,41.34
2022-07-28T18:41:21.274Z,41.23
2022-07-28T18:43:47.862Z,41.16
2022-07-28T18:46:15.387Z,41.83
2022-07-28T18:48:42.053Z,41.97
2022-07-28T18:51:08.660Z,41.90
2022-07-28T18:53:36.115Z,41.73
2022-07-28T18:56:02.664Z,41.69
2022-07-28T18:58:29.643Z,41.58
2022-07-28T19:00:56.596Z,41.72
2022-07-28T19:03:23.143Z,42.15
2022-07-28T19:05:49.727Z,42.28
2022-07-28T19:08:17.172Z,42.03
2022-07-28T19:10:43.997Z,41.94
2022-07-28T19:13:12.829Z,42.11
2022-07-28T19:15:41.270Z,42.71
2022-07-28T19:18:10.604Z,43.03
2022-07-28T19:20:43.853Z,42.81
2022-07-28T19:23:10.399Z,42.57
2022-07-28T19:25:39.556Z,42.40
2022-07-28T19:28:07.183Z,42.93
2022-07-28T19:30:34.970Z,43.14
2022-07-28T19:33:02.603Z,43.48
2022-07-28T19:35:29.229Z,43.70
2022-07-28T19:37:59.525Z,43.90
2022-07-28T19:40:29.064Z,43.69
2022-07-28T19:42:56.659Z,43.24
2022-07-28T19:45:23.241Z,43.34
2022-07-28T19:47:50.142Z,43.12
2022-07-28T19:50:17.056Z,42.77
2022-07-28T19:52:43.706Z,42.40
2022-07-28T19:55:12.750Z,42.61
2022-07-28T19:57:45.146Z,42.98
2022-07-28T20:00:13.389Z,43.31
2022-07-28T20:02:40.351Z,43.83
2022-07-28T20:05:08.395Z,44.08
2022-07-28T20:07:35.393Z,44.36
2022-07-28T20:10:02.031Z,44.32
2022-07-28T20:12:34.242Z,44.72
2022-07-28T20:15:05.015Z,44.93
2022-07-28T20:17:38.462Z,45.02
2022-07-28T20:20:12.767Z,45.22
2022-07-28T20:22:41.141Z,45.60
2022-07-28T20:25:10.007Z,45.69
2022-07-28T20:27:40.630Z,45.48
2022-07-28T20:30:10.218Z,45.22
2022-07-28T20:32:38.129Z,44.71
2022-07-28T20:35:07.017Z,45.27
2022-07-28T20:37:35.969Z,45.58
2022-07-28T20:40:05.920Z,45.40
2022-07-28T20:42:32.462Z,45.83
2022-07-28T20:44:58.978Z,45.63
2022-07-28T20:47:25.992Z,45.73
2022-07-28T20:49:53.381Z,45.87
2022-07-28T20:52:19.873Z,46.38
2022-07-28T20:54:50.612Z,46.47
2022-07-28T20:57:20.292Z,46.26
2022-07-28T20:59:48.799Z,46.14
2022-07-28T21:02:15.378Z,46.31
2022-07-28T21:04:41.892Z,46.80
2022-07-28T21:07:10.183Z,46.80
2022-07-28T21:09:36.712Z,47.19
2022-07-28T21:12:03.702Z,47.33
2022-07-28T21:14:32.151Z,47.61
2022-07-28T21:16:58.908Z,47.61
2022-07-28T21:19:25.564Z,48.08
2022-07-28T21:21:52.520Z,48.39
2022-07-28T21:24:19.365Z,48.38
2022-07-28T21:26:46.286Z,48.47
2022-07-28T21:32:04.170Z,48.85
2022-07-28T21:34:34.512Z,49.29
2022-07-28T21:37:06.699Z,49.19
2022-07-28T21:39:34.327Z,49.40
2022-07-28T21:42:01.070Z,49.42
2022-07-28T21:44:27.591Z,49.88
2022-07-28T21:46:54.163Z,49.62
2022-07-28T21:49:21.036Z,49.69
2022-07-28T21:51:47.619Z,49.53
2022-07-28T21:54:14.438Z,49.59
2022-07-28T21:56:41.193Z,49.47
2022-07-28T21:59:07.707Z,49.52
2022-07-28T22:01:34.408Z,49.84
2022-07-28T22:04:01.039Z,49.84
2022-07-28T22:06:27.545Z,49.47
2022-07-28T22:08:54.213Z,49.80
2022-07-28T22:11:22.872Z,49.70
2022-07-28T22:13:49.510Z,49.82
2022-07-28T22:16:16.136Z,50.38
2022-07-28T22:18:42.731Z,50.45
2022-07-28T22:21:09.378Z,50.62
2022-07-28T22:23:35.912Z,50.40
2022-07-28T22:26:03.049Z,50.42
2022-07-28T22:28:30.620Z,50.63
2022-07-28T22:30:59.054Z,50.60
2022-07-28T22:33:40.134Z,50.81
2022-07-28T22:36:08.790Z,50.61
2022-07-28T22:38:36.016Z,50.72
2022-07-28T22:41:02.978Z,50.91
2022-07-28T22:43:33.176Z,50.61
2022-07-28T22:45:59.818Z,50.12
2022-07-28T22:48:26.418Z,50.08
2022-07-28T22:50:53.064Z,49.89
2022-07-28T22:53:19.629Z,49.96
2022-07-28T22:55:46.151Z,49.97
2022-07-28T22:58:12.656Z,49.94
2022-07-28T23:00:39.281Z,50.02
2022-07-28T23:03:05.920Z,49.81
2022-07-28T23:05:33.726Z,50.00
2022-07-28T23:08:00.241Z,49.78
2022-07-28T23:10:26.972Z,49.68
2022-07-28T23:12:57.228Z,49.69
2022-07-28T23:15:25.138Z,49.48
2022-07-28T23:18:13.533Z,49.19
2022-07-28T23:20:41.459Z,49.02
2022-07-28T23:23:08.787Z,49.20
2022-07-28T23:25:42.604Z,49.25
2022-07-28T23:28:09.714Z,49.36
2022-07-28T23:30:36.355Z,49.30
2022-07-28T23:33:04.907Z,49.42
2022-07-28T23:35:31.545Z,49.35
2022-07-28T23:37:58.059Z,49.21
2022-07-28T23:40:24.631Z,49.49
2022-07-28T23:42:51.138Z,49.69
2022-07-28T23:45:17.644Z,49.71
2022-07-28T23:47:44.201Z,49.75
2022-07-28T23:50:10.887Z,49.88
2022-07-28T23:52:37.412Z,49.83
2022-07-28T23:55:05.127Z,50.14
2022-07-28T23:57:31.842Z,50.06
